Time;durP1;ratioP1;P1;durP2;ratioP2;P2;SDS_P1;SDS_P2;PMS_P1;PMS_P2;Temp;Humidity;BMP_temperature;BMP_pressure;BME280_temperature;BME280_humidity;BME280_pressure;Samples;Min_cycle;Max_cycle;Signal;HPM_P1;HPM_P2
2022/05/16 00:00:15;;;;;;;1.23;1.13;;;17.90;60.50;18.30;96525.00;;;;5018148;28;20218;-86
2022/05/16 00:02:42;;;;;;;1.63;1.50;;;17.90;60.50;18.20;96518.00;;;;5022695;28;20655;-86
2022/05/16 00:05:13;;;;;;;1.50;1.40;;;17.80;60.40;18.20;96519.00;;;;5034777;28;20288;-85
2022/05/16 00:07:40;;;;;;;0.90;0.90;;;17.80;60.60;18.20;96527.00;;;;5026278;28;20683;-87
2022/05/16 00:10:09;;;;;;;1.73;1.40;;;17.80;60.70;18.10;96519.00;;;;5034497;28;20682;-86
2022/05/16 00:12:37;;;;;;;1.27;1.20;;;17.70;61.10;18.10;96514.00;;;;5025455;28;20201;-86
2022/05/16 00:15:07;;;;;;;1.70;1.40;;;17.70;61.10;18.10;96521.00;;;;5028993;28;20193;-86
2022/05/16 00:17:34;;;;;;;1.70;1.60;;;17.70;61.30;18.00;96515.00;;;;5026242;28;20222;-86
2022/05/16 00:20:01;;;;;;;1.30;1.20;;;17.60;61.40;18.00;96518.00;;;;5015195;28;20214;-86
2022/05/16 00:22:29;;;;;;;1.77;1.20;;;17.60;61.50;18.00;96521.00;;;;5026408;28;20702;-86
2022/05/16 00:24:56;;;;;;;1.70;1.27;;;17.60;61.50;18.00;96529.00;;;;5028697;28;20206;-84
2022/05/16 00:27:24;;;;;;;1.67;1.57;;;17.60;61.40;17.90;96521.00;;;;5021359;28;20567;-86
2022/05/16 00:29:51;;;;;;;1.40;1.30;;;17.50;61.60;17.90;96520.00;;;;5021858;28;20308;-86
2022/05/16 00:32:18;;;;;;;1.60;1.50;;;17.50;61.70;17.90;96512.00;;;;5031063;28;20672;-86
2022/05/16 00:34:46;;;;;;;2.47;1.30;;;17.50;61.70;17.80;96523.00;;;;5033921;28;20677;-86
2022/05/16 00:37:14;;;;;;;1.47;1.27;;;17.40;61.60;17.80;96522.00;;;;5031283;28;20221;-86
2022/05/16 00:39:41;;;;;;;1.40;1.30;;;17.40;61.70;17.80;96528.00;;;;5024379;28;20229;-86
2022/05/16 00:42:12;;;;;;;1.37;1.27;;;17.40;61.90;17.80;96530.00;;;;5024434;28;20190;-87
2022/05/16 00:44:41;;;;;;;1.90;1.33;;;17.30;62.00;17.70;96530.00;;;;5032858;28;20209;-86
2022/05/16 00:47:08;;;;;;;1.40;1.30;;;17.30;62.20;17.70;96524.00;;;;5033826;28;20670;-87
2022/05/16 00:49:40;;;;;;;1.40;1.30;;;17.30;62.30;17.70;96517.00;;;;5020860;28;20235;-86
2022/05/16 00:52:14;;;;;;;1.30;1.20;;;17.30;62.70;17.60;96525.00;;;;5033800;28;20194;-86
2022/05/16 00:54:48;;;;;;;1.67;1.30;;;17.20;62.90;17.50;96518.00;;;;5035032;28;20225;-86
2022/05/16 00:57:19;;;;;;;1.43;1.30;;;17.20;63.00;17.50;96519.00;;;;5032804;28;20318;-86
2022/05/16 00:59:56;;;;;;;1.97;1.40;;;17.20;63.00;17.50;96515.00;;;;5034497;28;20224;-83
2022/05/16 01:05:12;;;;;;;1.40;1.30;;;17.10;63.00;17.50;96512.00;;;;5035875;28;20642;-84
2022/05/16 01:07:44;;;;;;;1.60;1.40;;;17.10;63.00;17.50;96519.00;;;;5035065;28;20198;-84
2022/05/16 01:10:16;;;;;;;1.50;1.20;;;17.10;63.20;17.40;96506.00;;;;5035149;28;20224;-84
2022/05/16 01:12:47;;;;;;;1.43;1.33;;;17.10;63.10;17.40;96506.00;;;;5034890;28;20190;-84
2022/05/16 01:15:28;;;;;;;2.20;1.37;;;17.00;63.00;17.40;96509.00;;;;5035189;28;20190;-84
2022/05/16 01:17:55;;;;;;;2.67;1.50;;;17.10;63.30;17.40;96510.00;;;;5034708;28;20206;-84
2022/05/16 01:20:22;;;;;;;1.70;1.60;;;17.00;63.10;17.40;96509.00;;;;5034562;28;20592;-84
2022/05/16 01:22:54;;;;;;;1.30;1.20;;;17.00;63.20;17.40;96510.00;;;;5019877;28;20735;-84
2022/05/16 01:25:27;;;;;;;1.43;1.33;;;17.00;63.40;17.40;96515.00;;;;5033026;28;20567;-84
2022/05/16 01:27:56;;;;;;;1.73;1.63;;;17.00;63.20;17.40;96510.00;;;;5023391;28;20208;-84
2022/05/16 01:30:27;;;;;;;3.17;1.43;;;17.00;62.90;17.30;96520.00;;;;5014642;28;20221;-85
2022/05/16 01:32:55;;;;;;;1.70;1.40;;;17.00;62.90;17.30;96517.00;;;;5014693;28;20194;-84
2022/05/16 01:35:26;;;;;;;2.53;1.40;;;16.90;62.70;17.30;96511.00;;;;5029597;28;20212;-85
2022/05/16 01:40:39;;;;;;;1.70;1.60;;;16.90;63.10;17.20;96508.00;;;;5015607;28;20289;-84
2022/05/16 01:43:07;;;;;;;1.77;1.67;;;16.90;63.20;17.20;96515.00;;;;5018468;28;20206;-84
2022/05/16 01:45:35;;;;;;;1.33;1.23;;;16.80;63.60;17.10;96519.00;;;;5023731;28;20553;-84
2022/05/16 01:48:02;;;;;;;1.33;1.23;;;16.80;63.70;17.10;96508.00;;;;5017143;28;20220;-84
2022/05/16 01:50:30;;;;;;;3.97;1.50;;;16.70;64.70;17.10;96508.00;;;;5076198;22;20238;-85
2022/05/16 01:52:58;;;;;;;2.17;1.37;;;16.70;64.10;17.00;96504.00;;;;5063636;28;20196;-86
2022/05/16 01:55:26;;;;;;;1.40;1.30;;;16.70;64.30;17.00;96511.00;;;;5071166;28;20195;-85
2022/05/16 01:57:53;;;;;;;2.03;1.50;;;16.70;64.20;17.00;96511.00;;;;5070645;28;20223;-85
2022/05/16 02:00:20;;;;;;;2.73;1.60;;;16.70;64.10;17.00;96505.00;;;;5056729;28;20219;-85
2022/05/16 02:02:48;;;;;;;1.50;1.40;;;16.70;64.30;17.00;96504.00;;;;5058235;28;20650;-85
2022/05/16 02:05:18;;;;;;;1.60;1.50;;;16.60;64.30;16.90;96517.00;;;;5048175;28;20681;-85
2022/05/16 02:07:45;;;;;;;1.60;1.50;;;16.60;64.30;16.90;96520.00;;;;5051919;28;20208;-85
2022/05/16 02:10:18;;;;;;;2.13;1.50;;;16.60;64.20;16.90;96528.00;;;;5049831;28;20221;-85
2022/05/16 02:12:46;;;;;;;1.67;1.57;;;16.50;64.30;16.90;96524.00;;;;5043595;28;20207;-85
2022/05/16 02:15:17;;;;;;;1.90;1.70;;;16.50;64.20;16.90;96534.00;;;;5054748;28;20196;-85
2022/05/16 02:17:44;;;;;;;1.37;1.27;;;16.50;64.40;16.90;96523.00;;;;5057567;28;20821;-85
2022/05/16 02:20:13;;;;;;;2.73;1.30;;;16.50;64.20;16.80;96527.00;;;;5051823;28;20243;-84
2022/05/16 02:25:27;;;;;;;1.87;1.67;;;16.50;64.50;16.80;96531.00;;;;5049563;28;20196;-85
2022/05/16 02:27:55;;;;;;;1.73;1.50;;;16.40;64.40;16.80;96535.00;;;;5046195;28;20200;-85
2022/05/16 02:30:23;;;;;;;1.93;1.60;;;16.40;64.60;16.80;96531.00;;;;5050766;28;20252;-85
2022/05/16 02:32:50;;;;;;;1.90;1.60;;;16.50;64.80;16.80;96540.00;;;;5044521;28;20201;-85
2022/05/16 02:35:18;;;;;;;1.53;1.43;;;16.40;64.90;16.80;96536.00;;;;5049720;28;20205;-85
2022/05/16 02:37:45;;;;;;;1.97;1.60;;;16.40;65.00;16.80;96535.00;;;;5056030;28;20655;-85
2022/05/16 02:40:12;;;;;;;2.07;1.80;;;16.40;65.20;16.70;96534.00;;;;5047005;28;20220;-85
2022/05/16 02:42:41;;;;;;;2.53;1.63;;;16.30;65.60;16.70;96528.00;;;;5052392;28;20557;-85
2022/05/16 02:45:10;;;;;;;1.77;1.67;;;16.30;66.00;16.60;96526.00;;;;5051406;28;20205;-85
2022/05/16 02:47:37;;;;;;;1.77;1.67;;;16.30;66.10;16.60;96533.00;;;;5050572;28;20197;-85
2022/05/16 02:50:05;;;;;;;1.90;1.80;;;16.30;66.30;16.60;96534.00;;;;5051928;28;20573;-85
2022/05/16 02:52:32;;;;;;;1.67;1.57;;;16.30;66.40;16.50;96529.00;;;;5054043;28;20646;-86
2022/05/16 02:55:00;;;;;;;2.57;1.60;;;16.20;67.20;16.60;96530.00;;;;5046012;28;20233;-85
2022/05/16 02:57:28;;;;;;;2.23;1.77;;;16.30;66.70;16.60;96541.00;;;;5044460;28;20222;-85
2022/05/16 02:59:57;;;;;;;1.50;1.40;;;16.20;66.60;16.60;96535.00;;;;5050105;28;20208;-85
2022/05/16 03:02:25;;;;;;;1.70;1.60;;;16.20;66.40;16.60;96541.00;;;;5047166;28;20204;-84
2022/05/16 03:04:54;;;;;;;1.73;1.60;;;16.30;66.40;16.60;96537.00;;;;5058684;28;20195;-85
2022/05/16 03:07:21;;;;;;;1.60;1.50;;;16.30;66.60;16.60;96533.00;;;;5049391;28;20204;-85
2022/05/16 03:09:48;;;;;;;1.97;1.70;;;16.30;66.70;16.70;96532.00;;;;5049446;28;20588;-85
2022/05/16 03:12:15;;;;;;;1.60;1.50;;;16.30;66.70;16.70;96530.00;;;;5055282;28;20192;-85
2022/05/16 03:14:42;;;;;;;1.90;1.80;;;16.30;66.70;16.70;96529.00;;;;5056273;28;20202;-85
2022/05/16 03:17:11;;;;;;;1.70;1.60;;;16.30;66.70;16.70;96522.00;;;;5048822;28;20238;-85
2022/05/16 03:19:38;;;;;;;2.30;1.80;;;16.30;66.90;16.70;96528.00;;;;5048537;28;20212;-85
2022/05/16 03:22:07;;;;;;;1.70;1.60;;;16.30;67.00;16.70;96529.00;;;;5048245;28;20568;-85
2022/05/16 03:24:35;;;;;;;1.93;1.70;;;16.30;67.10;16.70;96526.00;;;;5052038;28;20196;-85
2022/05/16 03:27:03;;;;;;;3.90;1.90;;;16.30;67.20;16.70;96530.00;;;;5053178;28;20231;-85
2022/05/16 03:29:30;;;;;;;3.00;2.03;;;16.30;67.30;16.80;96537.00;;;;5058799;28;20220;-85
2022/05/16 03:31:57;;;;;;;1.73;1.63;;;16.30;67.40;16.80;96525.00;;;;5053086;28;20211;-85
2022/05/16 03:34:26;;;;;;;2.27;1.73;;;16.30;67.30;16.80;96518.00;;;;5050993;28;20211;-85
2022/05/16 03:36:53;;;;;;;2.50;1.57;;;16.30;67.50;16.80;96529.00;;;;5043950;28;20259;-85
2022/05/16 03:42:05;;;;;;;1.60;1.50;;;16.40;67.70;16.90;96534.00;;;;5049612;28;20205;-85
2022/05/16 03:44:33;;;;;;;2.03;1.93;;;16.40;67.60;16.90;96541.00;;;;5053989;28;20208;-85
2022/05/16 03:47:00;;;;;;;2.10;2.00;;;16.40;67.80;16.90;96544.00;;;;5040683;28;20259;-85
2022/05/16 03:49:30;;;;;;;1.93;1.83;;;16.50;68.20;17.00;96546.00;;;;5041901;28;20252;-85
2022/05/16 03:51:59;;;;;;;1.77;1.67;;;16.50;68.20;17.00;96552.00;;;;5051078;28;20784;-85
2022/05/16 03:54:26;;;;;;;2.40;1.90;;;16.50;68.40;17.10;96544.00;;;;5045510;28;20242;-85
2022/05/16 03:56:53;;;;;;;2.10;2.00;;;16.60;68.60;17.10;96537.00;;;;5047633;28;20189;-85
2022/05/16 03:59:20;;;;;;;2.00;1.70;;;16.60;68.80;17.10;96537.00;;;;5051296;28;20221;-85
2022/05/16 04:01:49;;;;;;;4.17;2.03;;;16.60;68.80;17.10;96534.00;;;;5054429;28;20196;-85
2022/05/16 04:04:16;;;;;;;2.07;1.93;;;16.60;68.60;17.20;96536.00;;;;5058002;28;20196;-85
2022/05/16 04:06:45;;;;;;;1.77;1.67;;;16.70;68.80;17.20;96545.00;;;;5057432;28;20201;-85
2022/05/16 04:09:12;;;;;;;2.00;1.90;;;16.70;68.90;17.30;96541.00;;;;5056825;28;20285;-85
2022/05/16 04:11:39;;;;;;;1.70;1.60;;;16.80;68.80;17.30;96548.00;;;;5056582;28;20641;-84
2022/05/16 04:14:07;;;;;;;2.03;1.77;;;16.80;68.80;17.40;96555.00;;;;5061715;28;20283;-87
2022/05/16 04:16:34;;;;;;;1.97;1.87;;;16.90;69.60;17.40;96546.00;;;;5061024;28;20246;-85
2022/05/16 04:19:01;;;;;;;2.17;1.97;;;16.90;68.70;17.50;96555.00;;;;5059952;28;20225;-85
2022/05/16 04:21:28;;;;;;;2.33;1.90;;;16.90;68.60;17.50;96551.00;;;;5066989;28;21074;-85
2022/05/16 04:23:56;;;;;;;5.37;2.10;;;17.00;68.60;17.60;96549.00;;;;5073672;28;20286;-85
2022/05/16 04:26:23;;;;;;;2.03;1.93;;;17.00;68.70;17.60;96550.00;;;;5059793;28;20572;-85
2022/05/16 04:28:50;;;;;;;3.03;2.10;;;17.00;68.60;17.70;96552.00;;;;5057028;28;20637;-86
2022/05/16 04:31:17;;;;;;;3.30;2.00;;;17.00;68.40;17.70;96558.00;;;;5059146;28;20207;-85
2022/05/16 04:33:44;;;;;;;4.10;2.07;;;17.10;68.40;17.80;96547.00;;;;5047922;28;20211;-85
2022/05/16 04:36:11;;;;;;;2.17;2.07;;;17.20;68.40;17.80;96549.00;;;;5057220;28;20208;-84
2022/05/16 04:38:39;;;;;;;2.20;2.00;;;17.20;68.50;17.90;96552.00;;;;5039945;28;20217;-85
2022/05/16 04:43:53;;;;;;;2.50;2.30;;;17.30;68.30;18.00;96556.00;;;;5055680;28;20195;-84
2022/05/16 04:46:20;;;;;;;2.60;2.40;;;17.30;68.10;18.00;96559.00;;;;5054345;28;20196;-85
2022/05/16 04:48:47;;;;;;;2.77;2.27;;;17.40;68.20;18.10;96566.00;;;;5055395;28;20213;-85
2022/05/16 04:51:15;;;;;;;2.57;2.40;;;17.40;68.20;18.10;96567.00;;;;5046191;28;20186;-85
2022/05/16 04:53:42;;;;;;;2.40;2.20;;;17.50;68.40;18.20;96578.00;;;;5054693;28;20193;-85
2022/05/16 04:56:11;;;;;;;2.53;2.33;;;17.50;68.40;18.30;96578.00;;;;5066367;28;20196;-86
2022/05/16 04:58:38;;;;;;;2.57;2.23;;;17.60;68.40;18.30;96569.00;;;;5047861;28;20291;-84
2022/05/16 05:01:05;;;;;;;2.33;2.23;;;17.60;68.00;18.40;96568.00;;;;5055388;28;20567;-85
2022/05/16 05:03:32;;;;;;;3.67;2.77;;;17.70;68.00;18.40;96578.00;;;;5054823;28;20207;-85
2022/05/16 05:05:59;;;;;;;3.03;2.83;;;17.70;68.10;18.50;96572.00;;;;5049693;28;20667;-85
2022/05/16 05:08:27;;;;;;;3.00;2.80;;;17.80;68.20;18.50;96574.00;;;;5047895;28;20197;-85
2022/05/16 05:16:25;;;;;;;2.80;2.60;;;18.00;68.50;18.80;96582.00;;;;5047953;28;20568;-85
2022/05/16 05:18:53;;;;;;;2.97;2.43;;;18.10;68.30;18.90;96571.00;;;;5038624;28;20231;-85
2022/05/16 05:21:20;;;;;;;2.80;2.60;;;18.10;68.10;19.00;96573.00;;;;5036370;28;20669;-86
2022/05/16 05:23:48;;;;;;;3.33;3.03;;;18.20;68.10;19.10;96577.00;;;;5035121;28;20197;-85
2022/05/16 05:26:15;;;;;;;3.20;2.90;;;18.30;68.30;19.10;96575.00;;;;5038211;28;20201;-85
2022/05/16 05:28:44;;;;;;;2.90;2.70;;;18.30;68.30;19.20;96575.00;;;;5054749;28;20224;-85
2022/05/16 05:31:13;;;;;;;3.13;2.80;;;18.40;68.30;19.30;96574.00;;;;5047365;28;20212;-85
2022/05/16 05:33:41;;;;;;;3.07;2.87;;;18.50;68.40;19.40;96570.00;;;;5055938;28;20197;-85
2022/05/16 05:36:09;;;;;;;2.87;2.67;;;18.60;68.40;19.50;96577.00;;;;5043436;28;20228;-85
2022/05/16 05:38:37;;;;;;;3.10;2.90;;;18.70;68.10;19.50;96565.00;;;;5051855;28;20220;-86
2022/05/16 05:41:04;;;;;;;2.93;2.73;;;18.70;67.90;19.50;96569.00;;;;5054577;28;20189;-84
2022/05/16 05:43:32;;;;;;;4.70;2.70;;;18.80;67.80;19.60;96573.00;;;;5049104;28;20189;-84
2022/05/16 05:46:03;;;;;;;3.40;3.20;;;18.80;68.00;19.60;96574.00;;;;5036744;28;20197;-85
2022/05/16 05:48:30;;;;;;;3.23;2.90;;;18.80;68.00;19.70;96583.00;;;;5046380;28;20201;-85
2022/05/16 05:50:57;;;;;;;4.73;3.13;;;18.90;67.70;19.70;96583.00;;;;5053248;28;20342;-85
2022/05/16 05:53:25;;;;;;;2.93;2.73;;;18.90;67.30;19.70;96574.00;;;;5044152;28;20192;-85
2022/05/16 05:55:52;;;;;;;3.03;2.83;;;19.00;67.20;19.70;96570.00;;;;5068708;28;20203;-87
2022/05/16 05:58:19;;;;;;;2.70;2.50;;;19.00;67.10;19.70;96566.00;;;;5054345;28;20231;-85
2022/05/16 06:00:48;;;;;;;3.10;2.80;;;19.00;67.30;19.70;96576.00;;;;5052425;28;20303;-85
2022/05/16 06:03:17;;;;;;;3.57;2.93;;;19.00;67.40;19.80;96563.00;;;;5048014;28;20193;-86
2022/05/16 06:05:45;;;;;;;3.13;2.87;;;19.00;67.50;19.80;96572.00;;;;5044516;28;20292;-86
2022/05/16 06:08:12;;;;;;;2.83;2.63;;;19.10;67.60;19.80;96575.00;;;;5036571;28;20213;-86
2022/05/16 06:10:39;;;;;;;2.87;2.73;;;19.20;67.70;19.80;96577.00;;;;5051731;28;20228;-86
2022/05/16 06:13:06;;;;;;;4.63;3.50;;;19.20;67.70;19.90;96576.00;;;;5047309;28;20196;-85
2022/05/16 06:15:33;;;;;;;3.40;3.10;;;19.20;67.70;19.90;96599.00;;;;5053656;28;20209;-87
2022/05/16 06:18:00;;;;;;;3.50;3.20;;;19.20;67.70;19.90;96600.00;;;;5051223;28;20234;-85
2022/05/16 06:20:29;;;;;;;4.30;3.30;;;19.30;67.50;20.00;96600.00;;;;5052185;28;20225;-87
2022/05/16 06:22:56;;;;;;;3.90;3.50;;;19.30;67.50;20.10;96606.00;;;;5053049;28;20200;-86
2022/05/16 06:25:33;;;;;;;4.70;3.60;;;19.40;67.60;20.10;96610.00;;;;5045146;28;20201;-86
2022/05/16 06:28:04;;;;;;;3.47;3.17;;;19.40;67.40;20.20;96620.00;;;;5052693;28;20862;-87
2022/05/16 06:30:33;;;;;;;3.43;3.23;;;19.40;67.70;20.30;96612.00;;;;5042463;28;20217;-87
2022/05/16 06:33:00;;;;;;;5.53;4.33;;;19.50;67.80;20.40;96610.00;;;;5049420;28;20197;-86
2022/05/16 06:35:29;;;;;;;4.50;4.07;;;19.70;67.00;20.60;96612.00;;;;5049322;28;20252;-86
2022/05/16 06:37:56;;;;;;;5.50;4.30;;;19.70;66.80;20.80;96621.00;;;;5053134;28;20714;-88
2022/05/16 06:40:23;;;;;;;4.20;3.80;;;19.80;67.60;21.00;96622.00;;;;5050456;28;20216;-86
2022/05/16 06:42:50;;;;;;;4.90;3.60;;;20.00;67.60;21.20;96623.00;;;;5048425;28;20201;-86
2022/05/16 06:45:17;;;;;;;6.40;3.83;;;20.20;67.00;21.40;96631.00;;;;5044215;28;20192;-85
2022/05/16 06:47:45;;;;;;;4.00;3.70;;;20.40;67.10;21.60;96637.00;;;;5050489;28;20203;-86
2022/05/16 06:50:13;;;;;;;3.43;3.20;;;20.50;67.00;21.80;96640.00;;;;5046359;28;20226;-85
2022/05/16 06:52:42;;;;;;;3.40;3.10;;;20.70;66.80;22.00;96649.00;;;;5053260;28;20261;-85
2022/05/16 06:55:10;;;;;;;3.37;3.13;;;20.90;66.90;22.20;96657.00;;;;5051639;28;20199;-85
2022/05/16 06:57:38;;;;;;;5.20;3.37;;;21.00;66.30;22.30;96649.00;;;;5049781;28;20194;-85
2022/05/16 07:00:08;;;;;;;4.37;3.97;;;21.20;65.50;22.50;96644.00;;;;5048795;28;20231;-85
2022/05/16 07:02:36;;;;;;;4.00;3.70;;;21.30;64.60;22.60;96640.00;;;;5054864;28;20205;-86
2022/05/16 07:05:04;;;;;;;4.00;3.70;;;21.50;64.60;22.80;96644.00;;;;5056345;28;20204;-86
2022/05/16 07:07:31;;;;;;;4.00;3.70;;;21.60;64.80;23.00;96650.00;;;;5042376;28;20215;-86
2022/05/16 07:09:59;;;;;;;4.37;3.73;;;21.80;64.70;23.20;96650.00;;;;5057401;28;20220;-85
2022/05/16 07:12:27;;;;;;;4.87;3.77;;;22.00;64.60;23.40;96647.00;;;;5042681;28;20197;-85
2022/05/16 07:14:54;;;;;;;4.00;3.70;;;22.10;64.20;23.50;96654.00;;;;5056513;28;20207;-86
2022/05/16 07:17:21;;;;;;;4.10;3.80;;;22.30;63.80;23.70;96659.00;;;;5061726;28;20192;-86
2022/05/16 07:19:49;;;;;;;4.43;3.87;;;22.40;63.60;23.80;96665.00;;;;5051659;28;20230;-85
2022/05/16 07:22:22;;;;;;;4.37;3.90;;;22.60;63.20;23.80;96676.00;;;;5051863;28;20192;-86
2022/05/16 07:24:51;;;;;;;4.20;3.90;;;22.70;62.80;23.90;96689.00;;;;5063920;28;20197;-87
2022/05/16 07:30:06;;;;;;;4.17;3.77;;;22.90;62.60;24.00;96693.00;;;;5059759;28;20804;-85
2022/05/16 07:32:35;;;;;;;6.40;4.30;;;22.90;61.00;24.10;96692.00;;;;5056354;28;20203;-87
2022/05/16 07:35:05;;;;;;;4.20;3.90;;;23.00;60.20;24.10;96697.00;;;;5060215;28;20201;-85
2022/05/16 07:37:32;;;;;;;4.97;4.23;;;23.10;60.00;24.20;96692.00;;;;5058587;28;20205;-85
2022/05/16 07:39:59;;;;;;;7.40;4.30;;;23.20;59.90;24.30;96691.00;;;;5044285;28;20230;-85
2022/05/16 07:42:27;;;;;;;4.47;4.17;;;23.20;60.10;24.40;96688.00;;;;5040969;28;20219;-85
2022/05/16 07:44:54;;;;;;;4.77;3.97;;;23.30;60.00;24.50;96692.00;;;;5050027;28;20228;-85
2022/05/16 07:47:21;;;;;;;4.00;3.70;;;23.40;60.10;24.60;96695.00;;;;5054537;28;20206;-87
2022/05/16 07:52:17;;;;;;;4.37;4.07;;;23.60;60.30;24.80;96692.00;;;;5062036;28;20216;-83
2022/05/16 07:54:44;;;;;;;4.10;3.80;;;23.60;59.90;24.90;96690.00;;;;5058673;28;20230;-83
2022/05/16 07:57:12;;;;;;;4.23;3.83;;;23.70;60.10;25.10;96704.00;;;;5056207;28;20222;-84
2022/05/16 07:59:43;;;;;;;4.23;3.93;;;23.90;60.20;25.40;96703.00;;;;5050270;28;20306;-85
2022/05/16 08:02:12;;;;;;;5.03;3.90;;;24.00;60.80;25.70;96703.00;;;;5051335;28;20197;-84
2022/05/16 08:04:39;;;;;;;3.90;3.57;;;24.20;60.00;26.10;96716.00;;;;5047237;28;20224;-84
2022/05/16 08:07:07;;;;;;;3.63;3.33;;;24.40;60.00;26.40;96718.00;;;;5051076;28;20230;-85
2022/05/16 08:12:25;;;;;;;3.10;2.50;;;24.90;60.30;27.20;96733.00;;;;5041373;28;20207;-85
2022/05/16 08:14:54;;;;;;;3.07;2.80;;;25.20;59.80;27.40;96735.00;;;;5052628;28;20220;-84
2022/05/16 08:17:22;;;;;;;2.50;2.30;;;25.40;58.80;27.70;96731.00;;;;5054514;28;20213;-84
2022/05/16 08:19:49;;;;;;;3.97;2.40;;;25.70;58.90;27.90;96740.00;;;;5048449;28;20274;-84
2022/05/16 08:22:18;;;;;;;1.97;1.87;;;25.90;58.20;28.20;96750.00;;;;5054912;28;20220;-85
2022/05/16 08:24:46;;;;;;;2.40;2.20;;;26.20;57.90;28.40;96752.00;;;;5054993;28;20574;-85
2022/05/16 08:27:13;;;;;;;2.93;2.17;;;26.40;57.50;28.70;96759.00;;;;5050917;28;20217;-85
2022/05/16 08:29:41;;;;;;;2.03;1.93;;;26.70;57.10;28.90;96751.00;;;;5053056;28;20201;-84
2022/05/16 08:32:14;;;;;;;3.37;2.03;;;26.90;56.40;29.10;96760.00;;;;5052277;28;20196;-85
2022/05/16 08:34:44;;;;;;;2.95;1.90;;;27.10;55.90;29.30;96765.00;;;;5053439;28;20224;-84
2022/05/16 08:40:03;;;;;;;3.15;2.08;;;27.50;55.10;29.70;96763.00;;;;5054351;28;20673;-85
2022/05/16 08:42:49;;;;;;;2.65;1.85;;;27.70;54.60;29.90;96763.00;;;;5054129;28;20196;-84
2022/05/16 08:45:26;;;;;;;2.55;1.70;;;27.90;54.60;30.10;96762.00;;;;5051423;28;20576;-85
2022/05/16 08:48:04;;;;;;;2.58;2.03;;;28.10;54.30;30.30;96773.00;;;;5051756;28;20266;-85
2022/05/16 08:50:41;;;;;;;3.30;2.10;;;28.20;54.20;30.60;96782.00;;;;5053731;28;20231;-83
2022/05/16 08:53:17;;;;;;;2.15;1.70;;;28.50;53.70;30.80;96785.00;;;;5053510;28;20197;-85
2022/05/16 08:55:50;;;;;;;2.78;1.60;;;28.70;53.30;30.80;96781.00;;;;5046894;28;20192;-85
2022/05/16 08:58:25;;;;;;;2.80;1.90;;;28.80;53.00;30.70;96783.00;;;;5042670;28;20300;-84
2022/05/16 09:00:57;;;;;;;1.90;1.67;;;29.00;52.90;30.70;96780.00;;;;5045085;28;20192;-84
2022/05/16 09:03:35;;;;;;;2.10;1.90;;;29.00;52.40;30.70;96788.00;;;;5049826;28;20213;-84
2022/05/16 09:06:13;;;;;;;1.80;1.70;;;29.10;52.00;30.60;96785.00;;;;5051107;28;20181;-84
2022/05/16 09:08:51;;;;;;;1.88;1.30;;;29.20;51.50;30.60;96796.00;;;;5052040;28;20204;-84
2022/05/16 09:11:32;;;;;;;1.58;1.48;;;29.20;51.00;30.40;96805.00;;;;5051074;28;20196;-84
2022/05/16 09:14:09;;;;;;;1.52;1.35;;;29.20;50.60;30.30;96803.00;;;;5051290;28;20181;-84
2022/05/16 09:16:48;;;;;;;1.55;1.45;;;29.10;50.80;30.20;96800.00;;;;5051507;28;20247;-84
2022/05/16 09:19:48;;;;;;;1.65;1.40;;;29.10;50.30;30.00;96810.00;;;;5048734;28;20647;-85
2022/05/16 09:22:24;;;;;;;1.88;1.15;;;29.00;49.70;29.90;96806.00;;;;5032602;28;20229;-84
2022/05/16 09:24:58;;;;;;;1.60;1.30;;;28.90;50.10;29.80;96817.00;;;;5052203;28;20412;-84
2022/05/16 09:30:20;;;;;;;1.58;1.25;;;28.80;50.40;29.70;96813.00;;;;5019967;28;20193;-85
2022/05/16 09:32:55;;;;;;;2.03;1.23;;;28.70;50.40;29.70;96822.00;;;;5053887;28;20268;-85
2022/05/16 09:35:40;;;;;;;1.17;0.90;;;28.70;50.20;29.70;96819.00;;;;5042175;28;20227;-84
2022/05/16 09:38:08;;;;;;;1.08;1.08;;;28.70;50.00;29.70;96813.00;;;;5033671;28;20248;-85
2022/05/16 09:40:37;;;;;;;3.08;0.95;;;28.60;50.10;29.60;96823.00;;;;5033071;28;20713;-85
2022/05/16 09:43:15;;;;;;;1.25;1.00;;;28.60;50.50;29.60;96814.00;;;;5033187;28;20563;-85
2022/05/16 09:45:45;;;;;;;0.90;0.90;;;28.50;50.50;29.60;96827.00;;;;5038825;28;20811;-84
2022/05/16 09:48:19;;;;;;;1.63;1.20;;;28.50;50.30;29.50;96823.00;;;;5053837;28;20247;-84
2022/05/16 09:51:00;;;;;;;1.48;1.27;;;28.40;49.90;29.40;96828.00;;;;5053499;28;20208;-84
2022/05/16 09:53:33;;;;;;;0.98;0.90;;;28.40;50.30;29.30;96831.00;;;;5053540;28;20778;-84
2022/05/16 09:56:09;;;;;;;0.85;0.85;;;28.30;50.10;29.20;96831.00;;;;5045308;28;20207;-84
2022/05/16 09:58:49;;;;;;;2.38;0.88;;;28.20;50.10;29.10;96836.00;;;;5053271;28;20641;-84
2022/05/16 10:01:40;;;;;;;1.00;0.90;;;28.10;50.00;28.90;96832.00;;;;5051392;28;20258;-84
2022/05/16 10:04:14;;;;;;;0.80;0.80;;;28.10;50.00;28.80;96834.00;;;;5053054;28;20657;-84
2022/05/16 10:06:57;;;;;;;0.70;0.70;;;27.90;50.00;28.70;96836.00;;;;5047487;28;20213;-85
2022/05/16 10:09:32;;;;;;;0.83;0.70;;;27.80;50.20;28.60;96842.00;;;;5034623;28;20224;-84
2022/05/16 10:12:01;;;;;;;1.05;0.75;;;27.70;50.30;28.50;96850.00;;;;5042491;28;20632;-85
2022/05/16 10:14:28;;;;;;;0.90;0.68;;;27.60;50.60;28.40;96843.00;;;;5053746;28;20193;-85
2022/05/16 10:16:57;;;;;;;1.20;1.10;;;27.50;50.70;28.20;96838.00;;;;5049103;28;20304;-84
2022/05/16 10:19:28;;;;;;;1.00;0.93;;;27.40;50.70;28.10;96846.00;;;;5043324;28;20316;-84
2022/05/16 10:22:03;;;;;;;0.90;0.70;;;27.30;50.70;28.00;96843.00;;;;5041378;28;20259;-84
2022/05/16 10:24:37;;;;;;;1.37;0.87;;;27.20;51.30;27.90;96843.00;;;;5065003;28;20215;-85
2022/05/16 10:27:09;;;;;;;1.33;0.90;;;27.10;50.90;27.80;96846.00;;;;5073481;28;20251;-85
2022/05/16 10:29:43;;;;;;;1.00;0.90;;;27.00;51.30;27.80;96850.00;;;;5064752;28;20672;-85
2022/05/16 10:35:10;;;;;;;0.93;0.83;;;26.90;51.60;27.70;96849.00;;;;5050299;28;20242;-84
2022/05/16 10:37:44;;;;;;;1.30;1.10;;;26.80;51.80;27.60;96839.00;;;;5052794;28;20224;-84
2022/05/16 10:40:20;;;;;;;0.80;0.80;;;26.80;52.10;27.60;96835.00;;;;5053119;28;20311;-84
2022/05/16 10:42:55;;;;;;;1.13;0.97;;;26.70;52.20;27.60;96843.00;;;;5053233;28;20196;-84
2022/05/16 10:45:27;;;;;;;1.20;1.10;;;26.60;52.30;27.40;96844.00;;;;5052686;28;20259;-84
2022/05/16 10:48:05;;;;;;;2.33;1.17;;;26.60;52.30;27.40;96839.00;;;;5053449;28;20223;-84
2022/05/16 10:50:47;;;;;;;1.07;0.97;;;26.50;52.50;27.20;96833.00;;;;5047847;28;20215;-84
2022/05/16 10:53:23;;;;;;;0.97;0.90;;;26.40;52.60;27.10;96825.00;;;;5052026;28;20200;-84
2022/05/16 10:56:02;;;;;;;0.73;0.73;;;26.40;52.70;27.10;96824.00;;;;5050839;28;20276;-84
2022/05/16 10:58:47;;;;;;;1.03;1.03;;;26.30;53.00;27.00;96827.00;;;;5053086;28;20264;-85
2022/05/16 11:01:21;;;;;;;1.17;0.87;;;26.20;53.00;26.90;96824.00;;;;5050093;28;20235;-84
2022/05/16 11:04:30;;;;;;;1.20;1.03;;;26.10;53.20;26.80;96829.00;;;;5052671;28;20261;-84
2022/05/16 11:07:22;;;;;;;1.63;1.10;;;26.00;53.50;26.70;96825.00;;;;5051584;28;20227;-84
2022/05/16 11:10:04;;;;;;;1.20;1.03;;;26.00;53.70;26.60;96825.00;;;;5038547;28;20196;-85
2022/05/16 11:12:43;;;;;;;0.70;0.70;;;25.90;53.90;26.60;96819.00;;;;5051449;28;20188;-84
2022/05/16 11:15:31;;;;;;;1.17;1.13;;;25.80;53.90;26.60;96820.00;;;;5074986;28;20203;-85
2022/05/16 11:18:15;;;;;;;1.03;1.00;;;25.80;54.20;26.50;96822.00;;;;5054133;28;20250;-85
2022/05/16 11:20:49;;;;;;;1.00;1.00;;;25.80;54.70;26.50;96821.00;;;;5045165;28;20678;-85
2022/05/16 11:23:27;;;;;;;0.87;0.87;;;25.70;54.70;26.50;96817.00;;;;5050614;28;20231;-85
2022/05/16 11:26:07;;;;;;;1.43;1.00;;;25.70;54.80;26.50;96815.00;;;;5051357;28;20201;-85
2022/05/16 11:29:17;;;;;;;1.10;1.10;;;25.60;55.20;26.40;96812.00;;;;5050743;28;20200;-86
2022/05/16 11:31:47;;;;;;;1.07;0.97;;;25.60;55.50;26.40;96804.00;;;;5050781;28;20214;-86
2022/05/16 11:34:33;;;;;;;0.90;0.90;;;25.60;55.80;26.30;96803.00;;;;5058491;28;20283;-85
2022/05/16 11:37:17;;;;;;;1.23;1.13;;;25.50;56.60;26.30;96802.00;;;;5063342;28;20641;-85
2022/05/16 11:39:55;;;;;;;1.27;1.17;;;25.50;56.30;26.20;96800.00;;;;5062207;28;20212;-85
2022/05/16 11:42:52;;;;;;;1.30;1.20;;;25.40;56.30;26.10;96790.00;;;;5052864;28;20641;-85
2022/05/16 11:45:47;;;;;;;1.00;1.00;;;25.40;57.00;26.00;96788.00;;;;5053907;28;20193;-85